sensor_id;sensor_type;location;lat;lon;timestamp;pressure;altitude;pressure_sealevel;temperature
70668;BMP280;58242;51.250;-1.118;2022-10-16T00:01:30;99236.53;;;17.42
70668;BMP280;58242;51.250;-1.118;2022-10-16T00:03:57;99249.28;;;17.48
70668;BMP280;58242;51.250;-1.118;2022-10-16T00:06:24;99251.19;;;17.54
70668;BMP280;58242;51.250;-1.118;2022-10-16T00:08:50;99251.19;;;17.61
70668;BMP280;58242;51.250;-1.118;2022-10-16T00:11:23;99252.72;;;17.69
70668;BMP280;58242;51.250;-1.118;2022-10-16T00:13:50;99250.41;;;17.74
70668;BMP280;58242;51.250;-1.118;2022-10-16T00:16:17;99251.97;;;17.79
70668;BMP280;58242;51.250;-1.118;2022-10-16T00:18:43;99257.00;;;17.80
70668;BMP280;58242;51.250;-1.118;2022-10-16T00:21:12;99253.47;;;17.80
70668;BMP280;58242;51.250;-1.118;2022-10-16T00:23:38;99253.91;;;17.75
70668;BMP280;58242;51.250;-1.118;2022-10-16T00:26:05;99254.66;;;17.72
70668;BMP280;58242;51.250;-1.118;2022-10-16T00:28:31;99259.28;;;17.68
70668;BMP280;58242;51.250;-1.118;2022-10-16T00:30:57;99258.16;;;17.62
70668;BMP280;58242;51.250;-1.118;2022-10-16T00:33:23;99253.13;;;17.57
70668;BMP280;58242;51.250;-1.118;2022-10-16T00:35:49;99249.28;;;17.51
70668;BMP280;58242;51.250;-1.118;2022-10-16T00:38:15;99256.63;;;17.47
70668;BMP280;58242;51.250;-1.118;2022-10-16T00:40:40;99266.25;;;17.45
70668;BMP280;58242;51.250;-1.118;2022-10-16T00:43:14;99272.06;;;17.44
70668;BMP280;58242;51.250;-1.118;2022-10-16T00:45:40;99273.22;;;17.43
70668;BMP280;58242;51.250;-1.118;2022-10-16T00:48:11;99289.81;;;17.48
70668;BMP280;58242;51.250;-1.118;2022-10-16T00:50:38;99277.44;;;17.50
70668;BMP280;58242;51.250;-1.118;2022-10-16T00:53:04;99279.78;;;17.55
70668;BMP280;58242;51.250;-1.118;2022-10-16T00:55:30;99275.16;;;17.59
70668;BMP280;58242;51.250;-1.118;2022-10-16T00:57:57;99277.44;;;17.64
70668;BMP280;58242;51.250;-1.118;2022-10-16T01:00:25;99275.50;;;17.68
70668;BMP280;58242;51.250;-1.118;2022-10-16T01:02:56;99269.72;;;17.69
70668;BMP280;58242;51.250;-1.118;2022-10-16T01:05:33;99277.84;;;17.69
70668;BMP280;58242;51.250;-1.118;2022-10-16T01:08:19;99269.72;;;17.66
70668;BMP280;58242;51.250;-1.118;2022-10-16T01:11:04;99273.22;;;17.63
70668;BMP280;58242;51.250;-1.118;2022-10-16T01:13:40;99272.03;;;17.57
70668;BMP280;58242;51.250;-1.118;2022-10-16T01:16:29;99274.38;;;17.48
70668;BMP280;58242;51.250;-1.118;2022-10-16T01:21:39;99278.59;;;17.39
70668;BMP280;58242;51.250;-1.118;2022-10-16T01:30:05;99286.31;;;17.20
70668;BMP280;58242;51.250;-1.118;2022-10-16T01:40:34;99276.63;;;16.95
70668;BMP280;58242;51.250;-1.118;2022-10-16T01:43:04;99282.78;;;16.89
70668;BMP280;58242;51.250;-1.118;2022-10-16T01:45:31;99280.44;;;16.84
70668;BMP280;58242;51.250;-1.118;2022-10-16T01:47:58;99288.88;;;16.79
70668;BMP280;58242;51.250;-1.118;2022-10-16T01:50:26;99296.56;;;16.74
70668;BMP280;58242;51.250;-1.118;2022-10-16T01:52:52;99298.13;;;16.72
70668;BMP280;58242;51.250;-1.118;2022-10-16T01:55:27;99307.34;;;16.67
70668;BMP280;58242;51.250;-1.118;2022-10-16T01:57:54;99312.75;;;16.64
70668;BMP280;58242;51.250;-1.118;2022-10-16T02:00:22;99312.72;;;16.60
70668;BMP280;58242;51.250;-1.118;2022-10-16T02:02:50;99314.66;;;16.60
70668;BMP280;58242;51.250;-1.118;2022-10-16T02:05:23;99317.34;;;16.57
70668;BMP280;58242;51.250;-1.118;2022-10-16T02:07:50;99316.53;;;16.53
70668;BMP280;58242;51.250;-1.118;2022-10-16T02:10:16;99318.09;;;16.50
70668;BMP280;58242;51.250;-1.118;2022-10-16T02:12:45;99317.66;;;16.48
70668;BMP280;58242;51.250;-1.118;2022-10-16T02:15:12;99318.03;;;16.43
70668;BMP280;58242;51.250;-1.118;2022-10-16T02:17:37;99323.03;;;16.42
70668;BMP280;58242;51.250;-1.118;2022-10-16T02:20:04;99325.31;;;16.40
70668;BMP280;58242;51.250;-1.118;2022-10-16T02:22:36;99324.94;;;16.38
70668;BMP280;58242;51.250;-1.118;2022-10-16T02:27:40;99330.31;;;16.34
70668;BMP280;58242;51.250;-1.118;2022-10-16T02:30:11;99333.38;;;16.33
70668;BMP280;58242;51.250;-1.118;2022-10-16T02:32:40;99329.53;;;16.30
70668;BMP280;58242;51.250;-1.118;2022-10-16T02:35:08;99329.91;;;16.29
70668;BMP280;58242;51.250;-1.118;2022-10-16T02:37:35;99323.72;;;16.28
70668;BMP280;58242;51.250;-1.118;2022-10-16T02:40:02;99334.50;;;16.28
70668;BMP280;58242;51.250;-1.118;2022-10-16T02:42:37;99333.00;;;16.27
70668;BMP280;58242;51.250;-1.118;2022-10-16T02:45:04;99328.75;;;16.26
70668;BMP280;58242;51.250;-1.118;2022-10-16T02:47:30;99330.28;;;16.24
70668;BMP280;58242;51.250;-1.118;2022-10-16T02:49:55;99335.25;;;16.22
70668;BMP280;58242;51.250;-1.118;2022-10-16T02:52:20;99324.09;;;16.20
70668;BMP280;58242;51.250;-1.118;2022-10-16T02:54:46;99346.78;;;16.19
70668;BMP280;58242;51.250;-1.118;2022-10-16T02:57:11;99346.03;;;16.19
70668;BMP280;58242;51.250;-1.118;2022-10-16T02:59:37;99349.88;;;16.18
70668;BMP280;58242;51.250;-1.118;2022-10-16T03:02:02;99357.16;;;16.17
70668;BMP280;58242;51.250;-1.118;2022-10-16T03:04:28;99359.13;;;16.17
70668;BMP280;58242;51.250;-1.118;2022-10-16T03:06:53;99361.81;;;16.17
70668;BMP280;58242;51.250;-1.118;2022-10-16T03:09:18;99368.72;;;16.14
70668;BMP280;58242;51.250;-1.118;2022-10-16T03:11:44;99373.31;;;16.14
70668;BMP280;58242;51.250;-1.118;2022-10-16T03:14:09;99379.88;;;16.13
70668;BMP280;58242;51.250;-1.118;2022-10-16T03:16:34;99381.03;;;16.12
70668;BMP280;58242;51.250;-1.118;2022-10-16T03:19:00;99381.03;;;16.12
70668;BMP280;58242;51.250;-1.118;2022-10-16T03:21:26;99382.16;;;16.11
70668;BMP280;58242;51.250;-1.118;2022-10-16T03:23:51;99382.53;;;16.09
70668;BMP280;58242;51.250;-1.118;2022-10-16T03:26:16;99393.31;;;16.09
70668;BMP280;58242;51.250;-1.118;2022-10-16T03:28:42;99391.78;;;16.09
70668;BMP280;58242;51.250;-1.118;2022-10-16T03:31:07;99395.63;;;16.08
70668;BMP280;58242;51.250;-1.118;2022-10-16T03:33:33;99404.84;;;16.07
70668;BMP280;58242;51.250;-1.118;2022-10-16T03:35:58;99403.31;;;16.06
70668;BMP280;58242;51.250;-1.118;2022-10-16T03:38:24;99403.28;;;16.02
70668;BMP280;58242;51.250;-1.118;2022-10-16T03:40:49;99404.81;;;16.00
70668;BMP280;58242;51.250;-1.118;2022-10-16T03:43:14;99410.56;;;15.98
70668;BMP280;58242;51.250;-1.118;2022-10-16T03:45:40;99427.13;;;15.97
70668;BMP280;58242;51.250;-1.118;2022-10-16T03:48:05;99425.94;;;15.94
70668;BMP280;58242;51.250;-1.118;2022-10-16T03:50:31;99425.53;;;15.92
70668;BMP280;58242;51.250;-1.118;2022-10-16T03:52:56;99434.75;;;15.91
70668;BMP280;58242;51.250;-1.118;2022-10-16T03:55:22;99437.03;;;15.90
70668;BMP280;58242;51.250;-1.118;2022-10-16T03:57:47;99439.31;;;15.88
70668;BMP280;58242;51.250;-1.118;2022-10-16T04:00:13;99430.84;;;15.86
70668;BMP280;58242;51.250;-1.118;2022-10-16T04:02:38;99444.31;;;15.86
70668;BMP280;58242;51.250;-1.118;2022-10-16T04:05:04;99444.69;;;15.84
70668;BMP280;58242;51.250;-1.118;2022-10-16T04:07:30;99441.97;;;15.81
70668;BMP280;58242;51.250;-1.118;2022-10-16T04:09:55;99440.41;;;15.80
70668;BMP280;58242;51.250;-1.118;2022-10-16T04:12:20;99442.31;;;15.79
70668;BMP280;58242;51.250;-1.118;2022-10-16T04:14:46;99458.88;;;15.78
70668;BMP280;58242;51.250;-1.118;2022-10-16T04:17:11;99466.97;;;15.78
70668;BMP280;58242;51.250;-1.118;2022-10-16T04:19:36;99470.78;;;15.77
70668;BMP280;58242;51.250;-1.118;2022-10-16T04:22:02;99464.63;;;15.76
70668;BMP280;58242;51.250;-1.118;2022-10-16T04:24:27;99469.63;;;15.74
70668;BMP280;58242;51.250;-1.118;2022-10-16T04:26:52;99471.13;;;15.72
70668;BMP280;58242;51.250;-1.118;2022-10-16T04:29:18;99482.69;;;15.73
70668;BMP280;58242;51.250;-1.118;2022-10-16T04:31:43;99489.19;;;15.72
70668;BMP280;58242;51.250;-1.118;2022-10-16T04:34:08;99493.06;;;15.71
70668;BMP280;58242;51.250;-1.118;2022-10-16T04:36:33;99498.03;;;15.69
70668;BMP280;58242;51.250;-1.118;2022-10-16T04:38:59;99499.94;;;15.68
70668;BMP280;58242;51.250;-1.118;2022-10-16T04:41:24;99506.84;;;15.66
70668;BMP280;58242;51.250;-1.118;2022-10-16T04:43:49;99506.09;;;15.65
70668;BMP280;58242;51.250;-1.118;2022-10-16T04:46:15;99517.25;;;15.64
70668;BMP280;58242;51.250;-1.118;2022-10-16T04:48:40;99518.38;;;15.63
70668;BMP280;58242;51.250;-1.118;2022-10-16T04:51:05;99521.06;;;15.63
70668;BMP280;58242;51.250;-1.118;2022-10-16T04:53:31;99530.28;;;15.62
70668;BMP280;58242;51.250;-1.118;2022-10-16T04:55:56;99534.13;;;15.61
70668;BMP280;58242;51.250;-1.118;2022-10-16T04:58:22;99545.69;;;15.61
70668;BMP280;58242;51.250;-1.118;2022-10-16T05:00:47;99546.06;;;15.60
70668;BMP280;58242;51.250;-1.118;2022-10-16T05:03:13;99536.41;;;15.59
70668;BMP280;58242;51.250;-1.118;2022-10-16T05:05:42;99542.94;;;15.58
70668;BMP280;58242;51.250;-1.118;2022-10-16T05:08:09;99550.63;;;15.56
70668;BMP280;58242;51.250;-1.118;2022-10-16T05:10:34;99552.53;;;15.56
70668;BMP280;58242;51.250;-1.118;2022-10-16T05:12:59;99554.47;;;15.55
70668;BMP280;58242;51.250;-1.118;2022-10-16T05:15:25;99558.28;;;15.54
70668;BMP280;58242;51.250;-1.118;2022-10-16T05:17:53;99560.97;;;15.54
70668;BMP280;58242;51.250;-1.118;2022-10-16T05:20:18;99569.44;;;15.53
70668;BMP280;58242;51.250;-1.118;2022-10-16T05:22:44;99565.97;;;15.52
70668;BMP280;58242;51.250;-1.118;2022-10-16T05:25:09;99579.44;;;15.52
70668;BMP280;58242;51.250;-1.118;2022-10-16T05:27:34;99582.50;;;15.51
70668;BMP280;58242;51.250;-1.118;2022-10-16T05:29:59;99583.28;;;15.51
70668;BMP280;58242;51.250;-1.118;2022-10-16T05:32:25;99582.50;;;15.51
70668;BMP280;58242;51.250;-1.118;2022-10-16T05:34:50;99589.00;;;15.50
70668;BMP280;58242;51.250;-1.118;2022-10-16T05:37:16;99587.09;;;15.50
70668;BMP280;58242;51.250;-1.118;2022-10-16T05:39:41;99592.50;;;15.50
70668;BMP280;58242;51.250;-1.118;2022-10-16T05:42:06;99593.63;;;15.49
70668;BMP280;58242;51.250;-1.118;2022-10-16T05:44:32;99597.47;;;15.48
70668;BMP280;58242;51.250;-1.118;2022-10-16T05:46:58;99599.00;;;15.49
70668;BMP280;58242;51.250;-1.118;2022-10-16T05:49:23;99605.56;;;15.48
70668;BMP280;58242;51.250;-1.118;2022-10-16T05:51:48;99610.94;;;15.48
70668;BMP280;58242;51.250;-1.118;2022-10-16T05:54:14;99605.13;;;15.46
70668;BMP280;58242;51.250;-1.118;2022-10-16T05:56:39;99622.44;;;15.45
70668;BMP280;58242;51.250;-1.118;2022-10-16T05:59:05;99627.41;;;15.43
70668;BMP280;58242;51.250;-1.118;2022-10-16T06:01:30;99630.13;;;15.43
70668;BMP280;58242;51.250;-1.118;2022-10-16T06:03:56;99627.38;;;15.40
70668;BMP280;58242;51.250;-1.118;2022-10-16T06:06:24;99636.59;;;15.39
70668;BMP280;58242;51.250;-1.118;2022-10-16T06:08:52;99632.72;;;15.37
70668;BMP280;58242;51.250;-1.118;2022-10-16T06:11:22;99636.16;;;15.34
70668;BMP280;58242;51.250;-1.118;2022-10-16T06:13:53;99634.94;;;15.31
70668;BMP280;58242;51.250;-1.118;2022-10-16T06:16:18;99632.97;;;15.28
70668;BMP280;58242;51.250;-1.118;2022-10-16T06:18:44;99638.72;;;15.27
70668;BMP280;58242;51.250;-1.118;2022-10-16T06:21:12;99637.53;;;15.24
70668;BMP280;58242;51.250;-1.118;2022-10-16T06:23:37;99643.66;;;15.22
70668;BMP280;58242;51.250;-1.118;2022-10-16T06:26:07;99639.00;;;15.19
70668;BMP280;58242;51.250;-1.118;2022-10-16T06:28:33;99641.59;;;15.15
70668;BMP280;58242;51.250;-1.118;2022-10-16T06:31:00;99643.91;;;15.13
70668;BMP280;58242;51.250;-1.118;2022-10-16T06:33:25;99645.41;;;15.11
70668;BMP280;58242;51.250;-1.118;2022-10-16T06:35:50;99651.16;;;15.09
70668;BMP280;58242;51.250;-1.118;2022-10-16T06:38:16;99662.66;;;15.06
70668;BMP280;58242;51.250;-1.118;2022-10-16T06:40:41;99664.56;;;15.06
70668;BMP280;58242;51.250;-1.118;2022-10-16T06:43:06;99672.19;;;15.04
70668;BMP280;58242;51.250;-1.118;2022-10-16T06:45:32;99663.38;;;15.04
70668;BMP280;58242;51.250;-1.118;2022-10-16T06:47:57;99672.59;;;15.03
70668;BMP280;58242;51.250;-1.118;2022-10-16T06:50:22;99675.28;;;15.03
70668;BMP280;58242;51.250;-1.118;2022-10-16T06:52:48;99673.72;;;15.02
70668;BMP280;58242;51.250;-1.118;2022-10-16T06:55:14;99681.78;;;15.02
70668;BMP280;58242;51.250;-1.118;2022-10-16T06:57:40;99684.47;;;15.02
70668;BMP280;58242;51.250;-1.118;2022-10-16T07:00:06;99689.84;;;15.02
70668;BMP280;58242;51.250;-1.118;2022-10-16T07:02:31;99690.63;;;15.02
70668;BMP280;58242;51.250;-1.118;2022-10-16T07:04:56;99695.25;;;15.02
70668;BMP280;58242;51.250;-1.118;2022-10-16T07:07:22;99705.28;;;15.05
70668;BMP280;58242;51.250;-1.118;2022-10-16T07:09:49;99706.84;;;15.06
70668;BMP280;58242;51.250;-1.118;2022-10-16T07:12:15;99713.41;;;15.08
70668;BMP280;58242;51.250;-1.118;2022-10-16T07:14:40;99710.03;;;15.11
70668;BMP280;58242;51.250;-1.118;2022-10-16T07:17:05;99716.59;;;15.13
70668;BMP280;58242;51.250;-1.118;2022-10-16T07:19:31;99720.13;;;15.17
70668;BMP280;58242;51.250;-1.118;2022-10-16T07:21:56;99723.22;;;15.19
70668;BMP280;58242;51.250;-1.118;2022-10-16T07:24:22;99722.13;;;15.23
70668;BMP280;58242;51.250;-1.118;2022-10-16T07:26:47;99725.66;;;15.27
70668;BMP280;58242;51.250;-1.118;2022-10-16T07:29:15;99734.22;;;15.33
70668;BMP280;58242;51.250;-1.118;2022-10-16T07:31:42;99748.53;;;15.37
70668;BMP280;58242;51.250;-1.118;2022-10-16T07:34:08;99744.38;;;15.42
70668;BMP280;58242;51.250;-1.118;2022-10-16T07:36:33;99746.88;;;15.54
70668;BMP280;58242;51.250;-1.118;2022-10-16T07:38:59;99747.13;;;15.71
70668;BMP280;58242;51.250;-1.118;2022-10-16T07:41:24;99747.66;;;16.05
70668;BMP280;58242;51.250;-1.118;2022-10-16T07:43:51;99748.22;;;16.53
70668;BMP280;58242;51.250;-1.118;2022-10-16T07:46:18;99741.16;;;17.12
70668;BMP280;58242;51.250;-1.118;2022-10-16T07:48:44;99750.53;;;17.78
70668;BMP280;58242;51.250;-1.118;2022-10-16T07:51:13;99746.66;;;18.48
70668;BMP280;58242;51.250;-1.118;2022-10-16T07:53:39;99766.59;;;19.23
70668;BMP280;58242;51.250;-1.118;2022-10-16T07:56:05;99761.91;;;19.99
70668;BMP280;58242;51.250;-1.118;2022-10-16T07:58:32;99765.56;;;20.73
70668;BMP280;58242;51.250;-1.118;2022-10-16T08:00:57;99768.94;;;21.46
70668;BMP280;58242;51.250;-1.118;2022-10-16T08:03:23;99762.84;;;22.18
70668;BMP280;58242;51.250;-1.118;2022-10-16T08:05:49;99765.44;;;22.90
70668;BMP280;58242;51.250;-1.118;2022-10-16T08:08:16;99771.41;;;23.59
70668;BMP280;58242;51.250;-1.118;2022-10-16T08:10:42;99764.72;;;24.27
70668;BMP280;58242;51.250;-1.118;2022-10-16T08:13:07;99769.97;;;24.94
70668;BMP280;58242;51.250;-1.118;2022-10-16T08:15:33;99778.25;;;25.56
70668;BMP280;58242;51.250;-1.118;2022-10-16T08:18:00;99786.84;;;26.17
70668;BMP280;58242;51.250;-1.118;2022-10-16T08:20:27;99783.91;;;26.67
70668;BMP280;58242;51.250;-1.118;2022-10-16T08:22:53;99785.19;;;27.14
70668;BMP280;58242;51.250;-1.118;2022-10-16T08:25:19;99788.53;;;27.58
70668;BMP280;58242;51.250;-1.118;2022-10-16T08:27:45;99789.63;;;28.06
70668;BMP280;58242;51.250;-1.118;2022-10-16T08:30:10;99797.06;;;28.50
70668;BMP280;58242;51.250;-1.118;2022-10-16T08:32:36;99797.41;;;28.94
70668;BMP280;58242;51.250;-1.118;2022-10-16T08:35:01;99800.09;;;29.36
70668;BMP280;58242;51.250;-1.118;2022-10-16T08:37:30;99810.19;;;29.77
70668;BMP280;58242;51.250;-1.118;2022-10-16T08:39:56;99813.16;;;30.09
70668;BMP280;58242;51.250;-1.118;2022-10-16T08:45:21;99813.22;;;30.70
70668;BMP280;58242;51.250;-1.118;2022-10-16T08:50:39;99822.78;;;31.27
70668;BMP280;58242;51.250;-1.118;2022-10-16T08:53:05;99840.94;;;31.60
70668;BMP280;58242;51.250;-1.118;2022-10-16T08:55:50;99828.81;;;31.89
70668;BMP280;58242;51.250;-1.118;2022-10-16T08:58:21;99842.16;;;32.22
70668;BMP280;58242;51.250;-1.118;2022-10-16T09:00:51;99839.50;;;32.50
70668;BMP280;58242;51.250;-1.118;2022-10-16T09:04:02;99843.97;;;32.84
70668;BMP280;58242;51.250;-1.118;2022-10-16T09:14:46;99847.25;;;34.01
70668;BMP280;58242;51.250;-1.118;2022-10-16T09:22:38;99848.44;;;34.92
70668;BMP280;58242;51.250;-1.118;2022-10-16T09:25:12;99855.31;;;35.21
70668;BMP280;58242;51.250;-1.118;2022-10-16T09:27:38;99852.28;;;35.49
70668;BMP280;58242;51.250;-1.118;2022-10-16T09:30:14;99843.13;;;35.74
70668;BMP280;58242;51.250;-1.118;2022-10-16T09:32:41;99855.16;;;35.90
70668;BMP280;58242;51.250;-1.118;2022-10-16T09:35:14;99850.16;;;35.99
70668;BMP280;58242;51.250;-1.118;2022-10-16T09:37:42;99852.50;;;36.11
70668;BMP280;58242;51.250;-1.118;2022-10-16T09:40:12;99853.84;;;36.27
70668;BMP280;58242;51.250;-1.118;2022-10-16T09:42:38;99841.31;;;36.47
70668;BMP280;58242;51.250;-1.118;2022-10-16T09:45:04;99849.00;;;36.68
70668;BMP280;58242;51.250;-1.118;2022-10-16T09:47:31;99845.50;;;36.83
70668;BMP280;58242;51.250;-1.118;2022-10-16T09:52:26;99855.16;;;36.31
70668;BMP280;58242;51.250;-1.118;2022-10-16T09:54:53;99860.72;;;35.90
70668;BMP280;58242;51.250;-1.118;2022-10-16T09:57:20;99865.66;;;35.45
70668;BMP280;58242;51.250;-1.118;2022-10-16T09:59:50;99871.38;;;35.12
70668;BMP280;58242;51.250;-1.118;2022-10-16T10:02:23;99863.31;;;34.70
70668;BMP280;58242;51.250;-1.118;2022-10-16T10:04:53;99868.69;;;34.20
70668;BMP280;58242;51.250;-1.118;2022-10-16T10:07:28;99862.22;;;33.75
70668;BMP280;58242;51.250;-1.118;2022-10-16T10:09:56;99865.72;;;33.42
70668;BMP280;58242;51.250;-1.118;2022-10-16T10:12:25;99866.78;;;33.31
70668;BMP280;58242;51.250;-1.118;2022-10-16T10:14:52;99858.06;;;33.23
70668;BMP280;58242;51.250;-1.118;2022-10-16T10:17:21;99857.28;;;33.23
70668;BMP280;58242;51.250;-1.118;2022-10-16T10:19:55;99862.56;;;33.35
70668;BMP280;58242;51.250;-1.118;2022-10-16T10:30:59;99852.25;;;32.25
70668;BMP280;58242;51.250;-1.118;2022-10-16T10:33:53;99869.72;;;31.76
70668;BMP280;58242;51.250;-1.118;2022-10-16T10:36:29;99869.09;;;31.41
70668;BMP280;58242;51.250;-1.118;2022-10-16T10:46:47;99863.72;;;30.23
70668;BMP280;58242;51.250;-1.118;2022-10-16T10:49:24;99859.41;;;29.96
70668;BMP280;58242;51.250;-1.118;2022-10-16T10:54:54;99865.94;;;29.52
70668;BMP280;58242;51.250;-1.118;2022-10-16T10:57:28;99851.72;;;29.91
70668;BMP280;58242;51.250;-1.118;2022-10-16T11:00:03;99856.56;;;30.35
70668;BMP280;58242;51.250;-1.118;2022-10-16T11:02:41;99855.97;;;30.74
70668;BMP280;58242;51.250;-1.118;2022-10-16T11:05:28;99859.47;;;31.10
70668;BMP280;58242;51.250;-1.118;2022-10-16T11:08:10;99854.03;;;31.50
70668;BMP280;58242;51.250;-1.118;2022-10-16T11:10:44;99857.28;;;31.80
70668;BMP280;58242;51.250;-1.118;2022-10-16T11:13:19;99840.31;;;32.19
70668;BMP280;58242;51.250;-1.118;2022-10-16T11:15:48;99851.13;;;32.54
70668;BMP280;58242;51.250;-1.118;2022-10-16T11:18:30;99849.63;;;32.90
70668;BMP280;58242;51.250;-1.118;2022-10-16T11:21:05;99841.72;;;33.11
70668;BMP280;58242;51.250;-1.118;2022-10-16T11:26:30;99845.31;;;33.73
70668;BMP280;58242;51.250;-1.118;2022-10-16T11:28:58;99849.13;;;34.09
70668;BMP280;58242;51.250;-1.118;2022-10-16T11:31:39;99845.63;;;34.28
70668;BMP280;58242;51.250;-1.118;2022-10-16T11:34:19;99842.06;;;34.67
70668;BMP280;58242;51.250;-1.118;2022-10-16T11:37:05;99842.19;;;34.97
70668;BMP280;58242;51.250;-1.118;2022-10-16T11:39:34;99846.72;;;35.19
70668;BMP280;58242;51.250;-1.118;2022-10-16T11:42:22;99848.38;;;35.36
70668;BMP280;58242;51.250;-1.118;2022-10-16T11:47:44;99838.28;;;35.63
70668;BMP280;58242;51.250;-1.118;2022-10-16T11:52:50;99844.91;;;36.07
70668;BMP280;58242;51.250;-1.118;2022-10-16T11:55:58;99849.72;;;36.11
70668;BMP280;58242;51.250;-1.118;2022-10-16T12:06:30;99830.16;;;35.95
70668;BMP280;58242;51.250;-1.118;2022-10-16T12:08:59;99835.63;;;35.85
70668;BMP280;58242;51.250;-1.118;2022-10-16T12:16:55;99828.06;;;35.25
70668;BMP280;58242;51.250;-1.118;2022-10-16T12:19:22;99822.22;;;34.73
70668;BMP280;58242;51.250;-1.118;2022-10-16T12:21:48;99820.28;;;34.21
70668;BMP280;58242;51.250;-1.118;2022-10-16T12:26:59;99821.06;;;33.12
70668;BMP280;58242;51.250;-1.118;2022-10-16T12:29:35;99814.13;;;32.65
70668;BMP280;58242;51.250;-1.118;2022-10-16T12:32:03;99815.91;;;32.17
70668;BMP280;58242;51.250;-1.118;2022-10-16T12:37:13;99805.53;;;31.49
70668;BMP280;58242;51.250;-1.118;2022-10-16T12:39:39;99809.59;;;31.22
70668;BMP280;58242;51.250;-1.118;2022-10-16T12:44:44;99809.69;;;30.70
70668;BMP280;58242;51.250;-1.118;2022-10-16T12:47:47;99809.84;;;30.66
70668;BMP280;58242;51.250;-1.118;2022-10-16T12:50:24;99801.72;;;30.54
70668;BMP280;58242;51.250;-1.118;2022-10-16T12:52:49;99798.06;;;30.48
70668;BMP280;58242;51.250;-1.118;2022-10-16T12:55:21;99795.91;;;30.43
70668;BMP280;58242;51.250;-1.118;2022-10-16T13:00:33;99795.41;;;30.19
70668;BMP280;58242;51.250;-1.118;2022-10-16T13:19:18;99789.44;;;29.55
70668;BMP280;58242;51.250;-1.118;2022-10-16T13:22:11;99785.16;;;29.54
70668;BMP280;58242;51.250;-1.118;2022-10-16T13:28:02;99776.28;;;29.59
70668;BMP280;58242;51.250;-1.118;2022-10-16T13:30:30;99783.97;;;29.73
70668;BMP280;58242;51.250;-1.118;2022-10-16T13:33:24;99775.47;;;29.88
70668;BMP280;58242;51.250;-1.118;2022-10-16T13:35:55;99767.53;;;29.99
70668;BMP280;58242;51.250;-1.118;2022-10-16T13:38:26;99764.16;;;29.95
70668;BMP280;58242;51.250;-1.118;2022-10-16T13:41:05;99760.44;;;29.89
70668;BMP280;58242;51.250;-1.118;2022-10-16T13:43:34;99764.38;;;29.71
70668;BMP280;58242;51.250;-1.118;2022-10-16T13:46:05;99776.75;;;29.67
70668;BMP280;58242;51.250;-1.118;2022-10-16T13:48:32;99767.69;;;29.49
70668;BMP280;58242;51.250;-1.118;2022-10-16T13:50:59;99763.34;;;29.30
70668;BMP280;58242;51.250;-1.118;2022-10-16T13:53:24;99777.00;;;29.13
70668;BMP280;58242;51.250;-1.118;2022-10-16T13:55:50;99773.69;;;28.97
70668;BMP280;58242;51.250;-1.118;2022-10-16T13:58:15;99778.22;;;28.82
70668;BMP280;58242;51.250;-1.118;2022-10-16T14:00:53;99781.13;;;28.66
70668;BMP280;58242;51.250;-1.118;2022-10-16T14:03:19;99795.72;;;28.55
70668;BMP280;58242;51.250;-1.118;2022-10-16T14:05:59;99791.50;;;28.42
70668;BMP280;58242;51.250;-1.118;2022-10-16T14:08:26;99785.94;;;28.33
70668;BMP280;58242;51.250;-1.118;2022-10-16T14:10:55;99783.09;;;28.24
70668;BMP280;58242;51.250;-1.118;2022-10-16T14:13:30;99785.75;;;28.15
70668;BMP280;58242;51.250;-1.118;2022-10-16T14:15:56;99777.72;;;28.09
70668;BMP280;58242;51.250;-1.118;2022-10-16T14:18:26;99776.78;;;28.03
70668;BMP280;58242;51.250;-1.118;2022-10-16T14:20:52;99773.28;;;27.90
70668;BMP280;58242;51.250;-1.118;2022-10-16T14:25:43;99778.06;;;27.65
70668;BMP280;58242;51.250;-1.118;2022-10-16T14:30:35;99784.13;;;27.36
70668;BMP280;58242;51.250;-1.118;2022-10-16T14:33:04;99775.31;;;27.29
70668;BMP280;58242;51.250;-1.118;2022-10-16T14:35:38;99768.63;;;27.18
70668;BMP280;58242;51.250;-1.118;2022-10-16T14:38:05;99765.78;;;27.09
70668;BMP280;58242;51.250;-1.118;2022-10-16T14:40:36;99765.66;;;27.00
70668;BMP280;58242;51.250;-1.118;2022-10-16T14:43:03;99766.72;;;26.91
70668;BMP280;58242;51.250;-1.118;2022-10-16T14:45:31;99761.53;;;26.80
70668;BMP280;58242;51.250;-1.118;2022-10-16T14:48:02;99757.88;;;26.59
70668;BMP280;58242;51.250;-1.118;2022-10-16T14:50:28;99759.06;;;26.58
70668;BMP280;58242;51.250;-1.118;2022-10-16T14:52:54;99750.75;;;26.49
70668;BMP280;58242;51.250;-1.118;2022-10-16T14:55:20;99748.25;;;26.39
70668;BMP280;58242;51.250;-1.118;2022-10-16T14:57:46;99747.56;;;26.23
70668;BMP280;58242;51.250;-1.118;2022-10-16T15:00:20;99749.03;;;26.12
70668;BMP280;58242;51.250;-1.118;2022-10-16T15:02:47;99757.53;;;26.02
70668;BMP280;58242;51.250;-1.118;2022-10-16T15:05:25;99753.97;;;25.89
70668;BMP280;58242;51.250;-1.118;2022-10-16T15:07:52;99755.84;;;25.76
70668;BMP280;58242;51.250;-1.118;2022-10-16T15:10:20;99749.50;;;25.64
70668;BMP280;58242;51.250;-1.118;2022-10-16T15:12:46;99741.91;;;25.55
70668;BMP280;58242;51.250;-1.118;2022-10-16T15:15:24;99730.34;;;25.48
70668;BMP280;58242;51.250;-1.118;2022-10-16T15:17:51;99731.81;;;25.37
70668;BMP280;58242;51.250;-1.118;2022-10-16T15:20:23;99723.53;;;25.25
70668;BMP280;58242;51.250;-1.118;2022-10-16T15:22:49;99724.97;;;25.14
70668;BMP280;58242;51.250;-1.118;2022-10-16T15:27:54;99718.78;;;24.94
70668;BMP280;58242;51.250;-1.118;2022-10-16T15:30:20;99709.97;;;24.87
70668;BMP280;58242;51.250;-1.118;2022-10-16T15:32:45;99708.22;;;24.77
70668;BMP280;58242;51.250;-1.118;2022-10-16T15:35:10;99705.31;;;24.69
70668;BMP280;58242;51.250;-1.118;2022-10-16T15:37:36;99707.00;;;24.63
70668;BMP280;58242;51.250;-1.118;2022-10-16T15:40:01;99695.44;;;24.55
70668;BMP280;58242;51.250;-1.118;2022-10-16T15:42:26;99703.31;;;24.50
70668;BMP280;58242;51.250;-1.118;2022-10-16T15:44:51;99711.25;;;24.45
70668;BMP280;58242;51.250;-1.118;2022-10-16T15:47:17;99699.28;;;24.39
70668;BMP280;58242;51.250;-1.118;2022-10-16T15:49:42;99687.72;;;24.32
70668;BMP280;58242;51.250;-1.118;2022-10-16T15:52:07;99680.44;;;24.25
70668;BMP280;58242;51.250;-1.118;2022-10-16T15:54:33;99683.34;;;24.18
70668;BMP280;58242;51.250;-1.118;2022-10-16T15:56:58;99680.81;;;24.08
70668;BMP280;58242;51.250;-1.118;2022-10-16T15:59:23;99668.50;;;24.01
70668;BMP280;58242;51.250;-1.118;2022-10-16T16:01:49;99647.13;;;23.96
70668;BMP280;58242;51.250;-1.118;2022-10-16T16:04:14;99642.97;;;23.88